createdAt,value
2019-04-23T00:02:53.512Z,4.63
2019-04-23T00:13:15.087Z,4.17
2019-04-23T00:18:22.245Z,4.63
2019-04-23T00:23:32.872Z,3.50
2019-04-23T00:28:35.944Z,5.07
2019-04-23T00:33:59.047Z,6.83
2019-04-23T00:44:01.959Z,7.45
2019-04-23T00:49:05.791Z,3.87
2019-04-23T00:54:14.411Z,6.17
2019-04-23T00:59:12.599Z,2.98
2019-04-23T01:04:28.257Z,4.00
2019-04-23T01:09:39.086Z,6.33
2019-04-23T01:14:38.496Z,5.00
2019-04-23T01:19:54.715Z,5.05
2019-04-23T01:25:11.272Z,5.72
2019-04-23T01:30:34.116Z,4.87
2019-04-23T01:35:50.513Z,2.80
2019-04-23T01:41:02.027Z,4.50
2019-04-23T01:45:54.622Z,7.80
2019-04-23T01:50:57.526Z,6.55
2019-04-23T01:56:14.775Z,3.37
2019-04-23T02:01:19.132Z,3.97
2019-04-23T02:06:29.705Z,5.03
2019-04-23T02:11:31.657Z,4.37
2019-04-23T02:16:40.799Z,3.33
2019-04-23T02:21:55.166Z,4.62
2019-04-23T02:27:02.648Z,2.87
2019-04-23T02:37:22.416Z,6.25
2019-04-23T02:42:39.614Z,5.60
2019-04-23T02:47:32.590Z,4.70
2019-04-23T02:52:37.266Z,6.53
2019-04-23T02:57:44.205Z,4.90
2019-04-23T03:03:01.202Z,3.15
2019-04-23T03:13:24.929Z,2.83
2019-04-23T03:28:47.143Z,5.40
2019-04-23T03:34:31.973Z,3.30
2019-04-23T03:44:14.145Z,5.33
2019-04-23T03:49:07.431Z,6.08
2019-04-23T03:54:28.406Z,6.47
2019-04-23T03:59:28.537Z,7.12
2019-04-23T04:09:45.723Z,6.55
2019-04-23T04:19:49.781Z,7.67
2019-04-23T04:25:03.263Z,8.40
2019-04-23T04:30:22.333Z,8.13
2019-04-23T04:40:29.542Z,11.83
2019-04-23T04:45:43.226Z,16.55
2019-04-23T04:51:00.379Z,7.72
2019-04-23T04:55:58.224Z,12.35
2019-04-23T05:01:09.433Z,15.23
2019-04-23T05:21:21.263Z,16.05
2019-04-23T05:26:29.256Z,15.20
2019-04-23T05:31:32.560Z,5.65
2019-04-23T05:41:52.562Z,11.00
2019-04-23T05:52:00.324Z,7.00
2019-04-23T05:57:11.590Z,8.08
2019-04-23T06:02:20.286Z,5.92
2019-04-23T06:07:42.473Z,7.83
2019-04-23T06:12:31.464Z,5.10
2019-04-23T06:17:37.945Z,6.60
2019-04-23T06:22:51.151Z,7.77
2019-04-23T06:27:57.996Z,6.05
2019-04-23T06:33:11.160Z,7.30
2019-04-23T06:43:22.692Z,9.83
2019-04-23T06:48:32.206Z,5.45
2019-04-23T06:53:28.611Z,5.35
2019-04-23T07:03:50.311Z,6.40
2019-04-23T07:13:58.416Z,5.43
2019-04-23T07:19:17.819Z,10.00
2019-04-23T07:24:15.273Z,6.93
2019-04-23T07:29:28.931Z,6.10
2019-04-23T07:34:28.234Z,7.90
2019-04-23T07:39:59.007Z,6.20
2019-04-23T07:45:17.409Z,5.83
2019-04-23T07:55:34.714Z,9.23
2019-04-23T08:05:55.573Z,9.20
2019-04-23T08:11:30.596Z,9.00
2019-04-23T08:16:23.314Z,8.63
2019-04-23T08:21:21.207Z,9.28
2019-04-23T08:31:43.919Z,6.92
2019-04-23T08:36:48.645Z,9.88
2019-04-23T08:42:09.448Z,7.17
2019-04-23T08:47:10.351Z,6.85
2019-04-23T08:52:11.774Z,6.28
2019-04-23T09:02:35.395Z,10.43
2019-04-23T09:07:28.200Z,8.55
2019-04-23T09:17:47.688Z,6.85
2019-04-23T09:22:51.807Z,6.60
2019-04-23T09:27:59.796Z,9.55
2019-04-23T09:33:39.453Z,8.85
2019-04-23T09:39:04.571Z,7.92
2019-04-23T09:44:51.084Z,9.58
2019-04-23T09:49:54.787Z,12.10
2019-04-23T09:54:51.339Z,6.75
2019-04-23T09:59:48.871Z,12.83
2019-04-23T10:04:48.850Z,6.47
2019-04-23T10:09:40.422Z,7.62
2019-04-23T10:14:53.888Z,7.25
2019-04-23T10:19:53.125Z,9.10
2019-04-23T10:24:59.427Z,5.87
2019-04-23T10:30:06.198Z,7.87
2019-04-23T10:35:22.145Z,10.43
2019-04-23T10:40:26.286Z,7.70
2019-04-23T10:46:07.987Z,6.70
2019-04-23T10:56:43.351Z,10.80
2019-04-23T11:01:43.611Z,7.10
2019-04-23T11:06:50.130Z,7.50
2019-04-23T11:12:12.322Z,7.28
2019-04-23T11:17:16.982Z,7.00
2019-04-23T11:22:36.184Z,7.13
2019-04-23T11:27:40.565Z,10.13
2019-04-23T11:32:46.715Z,7.80
2019-04-23T11:53:02.646Z,6.12
2019-04-23T12:03:17.789Z,11.00
2019-04-23T12:08:43.139Z,14.10
2019-04-23T12:25:06.496Z,7.58
2019-04-23T12:29:49.085Z,10.03
2019-04-23T12:45:24.988Z,8.78
2019-04-23T12:55:39.978Z,7.03
2019-04-23T13:00:37.295Z,8.87
2019-04-23T13:05:57.329Z,10.70
2019-04-23T13:16:05.880Z,10.80
2019-04-23T13:21:14.295Z,12.57
2019-04-23T13:26:10.100Z,8.60
2019-04-23T13:31:26.655Z,18.50
2019-04-23T13:36:41.794Z,7.12
2019-04-23T13:41:52.161Z,8.95
2019-04-23T13:46:49.475Z,8.58
2019-04-23T13:52:02.446Z,10.07
2019-04-23T14:02:16.955Z,8.65
2019-04-23T14:07:24.572Z,8.20
2019-04-23T14:12:25.695Z,8.23
2019-04-23T14:17:46.770Z,8.30
2019-04-23T14:27:52.132Z,8.78
2019-04-23T14:32:53.731Z,11.88
2019-04-23T14:38:18.997Z,7.57
2019-04-23T14:48:14.832Z,9.38
2019-04-23T14:53:27.223Z,8.47
2019-04-23T14:58:36.852Z,10.48
2019-04-23T15:03:44.951Z,10.15
2019-04-23T15:13:49.952Z,9.30
2019-04-23T15:19:28.516Z,9.50
2019-04-23T15:24:27.847Z,7.37
2019-04-23T15:29:19.684Z,10.65
2019-04-23T15:34:36.491Z,9.67
2019-04-23T15:39:56.619Z,9.50
2019-04-23T15:44:55.825Z,11.03
2019-04-23T15:50:10.961Z,11.20
2019-04-23T15:55:05.878Z,10.20
2019-04-23T16:00:15.941Z,15.70
2019-04-23T16:04:55.939Z,18.23
2019-04-23T16:10:29.490Z,14.80
2019-04-23T16:20:54.474Z,13.68
2019-04-23T16:25:51.812Z,14.98
2019-04-23T16:31:08.062Z,11.63
2019-04-23T16:36:12.605Z,13.35
2019-04-23T16:41:20.057Z,13.80
2019-04-23T16:51:38.995Z,10.85
2019-04-23T16:56:55.242Z,8.20
2019-04-23T17:06:52.376Z,8.27
2019-04-23T17:13:46.646Z,12.97
2019-04-23T17:18:44.271Z,10.58
2019-04-23T17:24:15.401Z,12.70
2019-04-23T17:39:18.087Z,8.67
2019-04-23T17:49:44.593Z,9.18
2019-04-23T17:54:48.427Z,9.03
2019-04-23T18:05:06.478Z,7.50
2019-04-23T18:10:18.319Z,7.47
2019-04-23T18:15:15.161Z,14.93
2019-04-23T18:20:52.178Z,9.45
2019-04-23T18:31:11.060Z,10.33
2019-04-23T18:36:08.234Z,11.03
2019-04-23T18:41:10.721Z,11.68
2019-04-23T18:51:37.070Z,11.08
2019-04-23T18:56:59.478Z,9.10
2019-04-23T19:02:07.992Z,8.48
2019-04-23T19:07:27.384Z,8.03
2019-04-23T19:12:36.614Z,8.37
2019-04-23T19:17:46.646Z,11.55
2019-04-23T19:22:53.072Z,10.82
2019-04-23T19:27:59.011Z,8.97
2019-04-23T19:33:13.878Z,11.33
2019-04-23T19:38:21.340Z,8.77
2019-04-23T19:43:45.145Z,11.00
2019-04-23T19:53:59.584Z,10.78
2019-04-23T20:03:54.077Z,11.48
2019-04-23T20:14:25.208Z,10.20
2019-04-23T20:19:28.649Z,10.95
2019-04-23T20:24:37.635Z,8.83
2019-04-23T20:34:59.146Z,9.10
2019-04-23T20:40:08.235Z,11.95
2019-04-23T20:45:16.289Z,10.65
2019-04-23T20:50:18.165Z,10.38
2019-04-23T20:55:40.903Z,10.80
2019-04-23T21:00:54.957Z,10.80
2019-04-23T21:05:50.013Z,11.95
2019-04-23T21:10:55.363Z,12.60
2019-04-23T21:16:08.957Z,14.93
2019-04-23T21:21:18.221Z,10.97
2019-04-23T21:26:16.715Z,9.30
2019-04-23T21:31:25.542Z,10.43
2019-04-23T21:52:05.124Z,12.57
2019-04-23T21:57:14.636Z,18.82
2019-04-23T22:07:40.745Z,15.90
2019-04-23T22:12:46.849Z,14.93
2019-04-23T22:17:44.591Z,13.78
2019-04-23T22:27:58.196Z,10.53
2019-04-23T22:33:09.617Z,12.15
2019-04-23T22:43:20.302Z,12.85
2019-04-23T22:48:34.291Z,12.35
2019-04-23T22:53:41.712Z,11.10
2019-04-23T22:59:01.528Z,11.57
2019-04-23T23:09:25.941Z,11.20
2019-04-23T23:14:27.957Z,11.53
2019-04-23T23:19:54.345Z,14.55
2019-04-23T23:24:48.455Z,8.67
2019-04-23T23:29:58.090Z,8.18
2019-04-23T23:35:16.159Z,13.35
2019-04-23T23:40:15.255Z,12.40
2019-04-23T23:45:19.647Z,11.50
2019-04-23T23:55:27.336Z,14.50
